Time;durP1;ratioP1;P1;durP2;ratioP2;P2;SDS_P1;SDS_P2;PMS_P1;PMS_P2;Temp;Humidity;BMP_temperature;BMP_pressure;BME280_temperature;BME280_humidity;BME280_pressure;Samples;Min_cycle;Max_cycle;Signal;HPM_P1;HPM_P2
2023/08/09 00:04:21;;;;;;;3.93;2.10;;;;;;;;;;10432716;28;20412;-81
2023/08/09 00:09:24;;;;;;;3.10;1.80;;;;;;;;;;10432264;28;20460;-80
2023/08/09 00:14:27;;;;;;;1.80;1.40;;;;;;;;;;10426951;28;20488;-81
2023/08/09 00:19:30;;;;;;;2.47;1.30;;;;;;;;;;10433800;28;20395;-81
2023/08/09 00:24:33;;;;;;;1.35;1.15;;;;;;;;;;10430409;28;20483;-81
2023/08/09 00:29:36;;;;;;;1.75;1.00;;;;;;;;;;10431403;28;20971;-81
2023/08/09 00:34:38;;;;;;;4.68;1.55;;;;;;;;;;10430020;28;20449;-81
2023/08/09 00:39:42;;;;;;;1.27;0.80;;;;;;;;;;10432783;28;20461;-80
2023/08/09 00:44:45;;;;;;;0.77;0.70;;;;;;;;;;10427509;28;20459;-80
2023/08/09 00:49:47;;;;;;;1.00;0.88;;;;;;;;;;10444119;23;20444;-81
2023/08/09 00:54:51;;;;;;;1.50;1.00;;;;;;;;;;10420373;28;20451;-81
2023/08/09 00:59:54;;;;;;;0.83;0.80;;;;;;;;;;10424346;28;20459;-82
2023/08/09 01:04:57;;;;;;;1.60;0.90;;;;;;;;;;10429045;28;20913;-84
2023/08/09 01:10:07;;;;;;;1.15;0.90;;;;;;;;;;10425039;28;20499;-84
2023/08/09 01:15:12;;;;;;;0.95;0.77;;;;;;;;;;10422729;28;20932;-83
2023/08/09 01:20:16;;;;;;;1.30;0.80;;;;;;;;;;10431210;28;20404;-84
2023/08/09 01:25:21;;;;;;;1.00;0.70;;;;;;;;;;10429845;28;20413;-83
2023/08/09 01:30:24;;;;;;;1.35;0.90;;;;;;;;;;10428932;28;20411;-83
2023/08/09 01:35:27;;;;;;;1.52;0.70;;;;;;;;;;10428975;28;20860;-83
2023/08/09 01:40:32;;;;;;;2.03;0.87;;;;;;;;;;10429053;28;20877;-83
2023/08/09 01:45:35;;;;;;;1.40;0.70;;;;;;;;;;10424586;28;20441;-83
2023/08/09 01:50:38;;;;;;;1.80;1.20;;;;;;;;;;10428569;28;20473;-83
2023/08/09 01:55:41;;;;;;;1.05;0.75;;;;;;;;;;10428302;28;20417;-83
2023/08/09 02:00:44;;;;;;;1.00;0.90;;;;;;;;;;10426000;28;20411;-83
2023/08/09 02:05:46;;;;;;;1.25;1.10;;;;;;;;;;10428549;28;20961;-83
2023/08/09 02:10:50;;;;;;;1.67;1.03;;;;;;;;;;10428718;28;20829;-83
2023/08/09 02:15:53;;;;;;;1.97;1.33;;;;;;;;;;10426721;28;20472;-83
2023/08/09 02:20:55;;;;;;;1.50;1.30;;;;;;;;;;10432631;28;20403;-83
2023/08/09 02:25:59;;;;;;;1.58;1.20;;;;;;;;;;10436033;28;20467;-83
2023/08/09 02:31:01;;;;;;;2.60;1.30;;;;;;;;;;10432460;28;20408;-83
2023/08/09 02:36:04;;;;;;;1.97;1.10;;;;;;;;;;10435337;28;20968;-83
2023/08/09 02:41:08;;;;;;;3.50;1.30;;;;;;;;;;10436477;28;20505;-82
2023/08/09 02:46:10;;;;;;;1.57;1.20;;;;;;;;;;10434957;28;20503;-83
2023/08/09 02:51:12;;;;;;;1.13;0.98;;;;;;;;;;10434870;28;20985;-82
2023/08/09 02:56:16;;;;;;;1.40;1.20;;;;;;;;;;10436933;28;20442;-83
2023/08/09 03:01:19;;;;;;;2.47;1.40;;;;;;;;;;10430853;28;20471;-82
2023/08/09 03:06:22;;;;;;;3.20;1.60;;;;;;;;;;10435499;28;20411;-82
2023/08/09 03:11:26;;;;;;;2.53;1.50;;;;;;;;;;10435200;28;20417;-82
2023/08/09 03:16:28;;;;;;;2.00;1.40;;;;;;;;;;10434497;28;20415;-82
2023/08/09 03:21:30;;;;;;;2.63;0.97;;;;;;;;;;10433470;28;21103;-82
2023/08/09 03:26:34;;;;;;;1.58;0.98;;;;;;;;;;10432763;28;20421;-82
2023/08/09 03:31:36;;;;;;;1.10;0.90;;;;;;;;;;10433895;28;20817;-82
2023/08/09 03:36:39;;;;;;;2.10;0.85;;;;;;;;;;10435347;28;20769;-83
2023/08/09 03:41:43;;;;;;;1.27;0.95;;;;;;;;;;10431419;28;20471;-82
2023/08/09 03:46:46;;;;;;;1.83;0.80;;;;;;;;;;10431946;28;20518;-83
2023/08/09 03:51:48;;;;;;;1.70;0.85;;;;;;;;;;10434008;28;20431;-82
2023/08/09 03:56:52;;;;;;;1.38;0.82;;;;;;;;;;10429606;28;20807;-82
2023/08/09 04:01:54;;;;;;;1.55;0.80;;;;;;;;;;10431388;28;20405;-82
2023/08/09 04:06:56;;;;;;;0.80;0.80;;;;;;;;;;10434254;28;20989;-83
2023/08/09 04:12:00;;;;;;;1.47;0.73;;;;;;;;;;10430970;28;20421;-82
2023/08/09 04:17:04;;;;;;;7.90;3.90;;;;;;;;;;10427560;28;20899;-83
2023/08/09 04:22:07;;;;;;;6.57;3.95;;;;;;;;;;10433138;28;20457;-82
2023/08/09 04:27:11;;;;;;;3.20;1.40;;;;;;;;;;10429932;28;20418;-82
2023/08/09 04:32:14;;;;;;;1.08;0.98;;;;;;;;;;10430974;28;20737;-83
2023/08/09 04:37:16;;;;;;;1.40;1.05;;;;;;;;;;10432681;28;20458;-83
2023/08/09 04:42:19;;;;;;;1.85;0.82;;;;;;;;;;10424995;28;20475;-83
2023/08/09 04:47:22;;;;;;;2.53;1.10;;;;;;;;;;10426001;28;20402;-83
2023/08/09 04:52:24;;;;;;;1.30;1.10;;;;;;;;;;10425763;28;20441;-82
2023/08/09 04:57:30;;;;;;;2.08;1.45;;;;;;;;;;10424210;28;20408;-82
2023/08/09 05:02:36;;;;;;;2.40;1.30;;;;;;;;;;10425701;28;20953;-82
2023/08/09 05:07:39;;;;;;;3.25;1.52;;;;;;;;;;10431154;28;20408;-83
2023/08/09 05:12:42;;;;;;;2.20;1.80;;;;;;;;;;10426791;28;20458;-82
2023/08/09 05:17:45;;;;;;;1.53;1.07;;;;;;;;;;10428958;28;20444;-82
2023/08/09 05:22:48;;;;;;;1.35;1.17;;;;;;;;;;10431672;28;20816;-82
2023/08/09 05:27:51;;;;;;;2.72;1.80;;;;;;;;;;10427806;28;20448;-83
2023/08/09 05:32:54;;;;;;;1.15;1.05;;;;;;;;;;10431007;28;20420;-83
2023/08/09 05:37:56;;;;;;;1.20;1.10;;;;;;;;;;10427358;28;20478;-82
2023/08/09 05:43:00;;;;;;;2.53;1.00;;;;;;;;;;10429488;28;20961;-83
2023/08/09 05:48:02;;;;;;;1.70;1.13;;;;;;;;;;10424111;28;20405;-82
2023/08/09 05:53:04;;;;;;;0.88;0.80;;;;;;;;;;10429842;28;20420;-83
2023/08/09 05:58:08;;;;;;;1.77;0.80;;;;;;;;;;10422275;28;20448;-82
2023/08/09 06:03:10;;;;;;;2.50;0.80;;;;;;;;;;10423702;28;21026;-82
2023/08/09 06:08:13;;;;;;;1.77;0.87;;;;;;;;;;10423002;28;20892;-83
2023/08/09 06:13:16;;;;;;;4.85;1.00;;;;;;;;;;10428401;28;20424;-82
2023/08/09 06:18:19;;;;;;;1.98;0.80;;;;;;;;;;10423568;28;20957;-82
2023/08/09 06:23:21;;;;;;;1.27;0.70;;;;;;;;;;10429469;28;20412;-83
2023/08/09 06:28:25;;;;;;;0.70;0.60;;;;;;;;;;10425864;28;20411;-81
2023/08/09 06:33:30;;;;;;;2.10;0.70;;;;;;;;;;10426691;28;20760;-82
2023/08/09 06:38:32;;;;;;;1.52;0.80;;;;;;;;;;10422133;28;20417;-82
2023/08/09 06:43:36;;;;;;;1.63;0.70;;;;;;;;;;10423265;28;20413;-82
2023/08/09 06:48:38;;;;;;;1.70;0.85;;;;;;;;;;10429199;28;20809;-83
2023/08/09 06:53:40;;;;;;;0.90;0.82;;;;;;;;;;10426331;28;20429;-82
2023/08/09 06:58:44;;;;;;;1.02;0.90;;;;;;;;;;10427307;28;20443;-83
2023/08/09 07:03:50;;;;;;;1.65;0.70;;;;;;;;;;10428737;28;20407;-82
2023/08/09 07:08:53;;;;;;;1.60;0.93;;;;;;;;;;10429084;28;20406;-84
2023/08/09 07:13:57;;;;;;;3.30;0.80;;;;;;;;;;10432327;28;20429;-82
2023/08/09 07:18:59;;;;;;;1.30;0.70;;;;;;;;;;10429511;28;20455;-82
2023/08/09 07:24:02;;;;;;;2.93;0.80;;;;;;;;;;10429640;28;20884;-82
2023/08/09 07:29:06;;;;;;;2.05;1.10;;;;;;;;;;10435907;28;20466;-82
2023/08/09 07:34:08;;;;;;;2.22;0.80;;;;;;;;;;10432742;28;20421;-82
2023/08/09 07:39:10;;;;;;;2.50;0.82;;;;;;;;;;10435249;28;20485;-82
2023/08/09 07:44:14;;;;;;;1.85;0.80;;;;;;;;;;10432969;28;20778;-81
2023/08/09 07:49:16;;;;;;;1.35;0.63;;;;;;;;;;10432046;28;20405;-82
2023/08/09 07:54:18;;;;;;;2.70;0.80;;;;;;;;;;10434093;28;20471;-82
2023/08/09 07:59:22;;;;;;;1.40;0.60;;;;;;;;;;10429868;28;20412;-82
2023/08/09 08:04:24;;;;;;;2.13;0.90;;;;;;;;;;10431684;28;20413;-82
2023/08/09 08:09:27;;;;;;;1.80;0.73;;;;;;;;;;10434564;28;20874;-82
2023/08/09 08:14:30;;;;;;;1.10;0.65;;;;;;;;;;10429857;28;20459;-83
2023/08/09 08:19:32;;;;;;;2.00;0.80;;;;;;;;;;10430208;28;20400;-82
2023/08/09 08:24:35;;;;;;;1.48;0.63;;;;;;;;;;10432713;28;20436;-82
2023/08/09 08:29:39;;;;;;;1.02;0.70;;;;;;;;;;10427460;28;20974;-82
2023/08/09 08:34:41;;;;;;;1.90;0.70;;;;;;;;;;10432124;28;20456;-83
2023/08/09 08:39:44;;;;;;;1.60;0.80;;;;;;;;;;10430774;28;20890;-82
2023/08/09 08:44:49;;;;;;;1.20;0.73;;;;;;;;;;10429429;28;20470;-82
2023/08/09 08:49:53;;;;;;;2.10;0.70;;;;;;;;;;10431852;28;20417;-83
2023/08/09 08:54:56;;;;;;;1.42;0.70;;;;;;;;;;10430461;28;20927;-82
2023/08/09 09:00:08;;;;;;;0.85;0.60;;;;;;;;;;10426513;28;21055;-82
2023/08/09 09:05:11;;;;;;;0.98;0.57;;;;;;;;;;10425722;28;20401;-82
2023/08/09 09:10:14;;;;;;;2.90;0.80;;;;;;;;;;10425173;28;20459;-82
2023/08/09 09:15:18;;;;;;;1.17;0.70;;;;;;;;;;10426157;28;20963;-82
2023/08/09 09:20:23;;;;;;;1.45;0.60;;;;;;;;;;10425435;28;20405;-82
2023/08/09 09:25:26;;;;;;;0.68;0.60;;;;;;;;;;10424726;28;20487;-82
2023/08/09 09:30:31;;;;;;;2.37;0.70;;;;;;;;;;10423888;28;20422;-82
2023/08/09 09:35:34;;;;;;;0.90;0.50;;;;;;;;;;10430767;28;20533;-82
2023/08/09 09:40:37;;;;;;;1.90;0.50;;;;;;;;;;10427699;28;20405;-83
2023/08/09 09:45:41;;;;;;;1.57;0.50;;;;;;;;;;10427848;28;20412;-82
2023/08/09 09:50:44;;;;;;;1.40;0.52;;;;;;;;;;10427473;28;20470;-82
2023/08/09 09:55:47;;;;;;;1.20;0.50;;;;;;;;;;10426149;28;20519;-83
2023/08/09 10:00:55;;;;;;;1.60;0.52;;;;;;;;;;10426342;28;20441;-82
2023/08/09 10:06:00;;;;;;;1.20;0.40;;;;;;;;;;10429413;28;20458;-82
2023/08/09 10:11:04;;;;;;;1.30;0.50;;;;;;;;;;10427760;28;20406;-82
2023/08/09 10:16:10;;;;;;;1.13;0.53;;;;;;;;;;10426048;28;20837;-82
2023/08/09 10:21:16;;;;;;;1.02;0.52;;;;;;;;;;10429743;28;20403;-83
2023/08/09 10:26:18;;;;;;;1.95;0.57;;;;;;;;;;10428012;28;20788;-82
2023/08/09 10:31:51;;;;;;;1.98;0.60;;;;;;;;;;10427462;28;20420;-82
2023/08/09 10:36:54;;;;;;;0.47;0.40;;;;;;;;;;10426986;28;20969;-82
2023/08/09 10:42:02;;;;;;;0.90;0.40;;;;;;;;;;10432512;28;20438;-82
2023/08/09 10:47:07;;;;;;;1.00;0.50;;;;;;;;;;10437301;28;20419;-82
2023/08/09 10:52:13;;;;;;;1.07;0.47;;;;;;;;;;10433776;28;20776;-83
2023/08/09 10:57:16;;;;;;;1.00;0.40;;;;;;;;;;10433154;28;20870;-82
2023/08/09 11:02:19;;;;;;;1.50;0.55;;;;;;;;;;10437085;28;20404;-82
2023/08/09 11:07:22;;;;;;;2.03;0.40;;;;;;;;;;10433574;28;20872;-82
2023/08/09 11:12:24;;;;;;;2.80;0.50;;;;;;;;;;10436503;28;20495;-83
2023/08/09 11:17:28;;;;;;;0.83;0.43;;;;;;;;;;10434074;28;20422;-82
2023/08/09 11:22:30;;;;;;;0.80;0.40;;;;;;;;;;10436847;28;20407;-83
2023/08/09 11:27:33;;;;;;;1.65;0.50;;;;;;;;;;10430780;28;20469;-83
2023/08/09 11:32:38;;;;;;;1.50;0.50;;;;;;;;;;10433443;28;20471;-83
2023/08/09 11:37:41;;;;;;;0.45;0.45;;;;;;;;;;10434947;28;20431;-82
2023/08/09 11:42:43;;;;;;;0.95;0.43;;;;;;;;;;10431089;28;20408;-83
2023/08/09 11:47:50;;;;;;;1.30;0.50;;;;;;;;;;10432848;28;20696;-82
2023/08/09 11:52:54;;;;;;;0.70;0.50;;;;;;;;;;10426733;28;20887;-83
2023/08/09 11:57:57;;;;;;;1.50;0.63;;;;;;;;;;10426721;28;20480;-82
2023/08/09 12:03:05;;;;;;;1.52;0.70;;;;;;;;;;10434615;28;20411;-83
2023/08/09 12:08:08;;;;;;;0.50;0.50;;;;;;;;;;10425911;28;20923;-83
2023/08/09 12:13:10;;;;;;;1.08;0.57;;;;;;;;;;10430228;28;20408;-83
2023/08/09 12:18:14;;;;;;;0.55;0.50;;;;;;;;;;10431055;28;20444;-83
2023/08/09 12:23:16;;;;;;;1.60;0.67;;;;;;;;;;10433934;28;20466;-82
2023/08/09 12:28:19;;;;;;;2.40;0.50;;;;;;;;;;10429208;28;20415;-82
2023/08/09 12:33:22;;;;;;;1.70;0.40;;;;;;;;;;10429930;28;20428;-83
2023/08/09 12:38:25;;;;;;;0.95;0.50;;;;;;;;;;10426401;28;20433;-83
2023/08/09 12:43:27;;;;;;;0.88;0.50;;;;;;;;;;10426122;28;20465;-82
2023/08/09 12:48:31;;;;;;;1.85;0.60;;;;;;;;;;10433250;28;20403;-83
2023/08/09 12:53:33;;;;;;;0.85;0.50;;;;;;;;;;10425572;28;20765;-82
2023/08/09 12:58:35;;;;;;;1.48;0.50;;;;;;;;;;10428619;28;20899;-83
2023/08/09 13:03:39;;;;;;;0.88;0.65;;;;;;;;;;10431488;28;20400;-82
2023/08/09 13:08:41;;;;;;;1.35;0.50;;;;;;;;;;10429418;28;20406;-83
2023/08/09 13:13:43;;;;;;;1.67;0.60;;;;;;;;;;10426720;28;20437;-82
2023/08/09 13:18:47;;;;;;;2.92;0.95;;;;;;;;;;10431168;28;20431;-83
2023/08/09 13:23:49;;;;;;;2.63;0.70;;;;;;;;;;10428494;28;20405;-83
2023/08/09 13:28:51;;;;;;;1.50;0.70;;;;;;;;;;10429108;28;20555;-83
2023/08/09 13:33:55;;;;;;;0.90;0.80;;;;;;;;;;10430412;28;21072;-82
2023/08/09 13:38:58;;;;;;;2.85;0.75;;;;;;;;;;10428805;28;20514;-82
2023/08/09 13:44:00;;;;;;;2.00;1.77;;;;;;;;;;10427540;28;20434;-83
2023/08/09 13:49:05;;;;;;;2.00;0.87;;;;;;;;;;10429799;28;20574;-82
2023/08/09 13:54:09;;;;;;;1.00;0.70;;;;;;;;;;10428063;28;20417;-83
2023/08/09 13:59:11;;;;;;;2.22;0.70;;;;;;;;;;10427087;28;20438;-82
2023/08/09 14:04:15;;;;;;;1.55;1.00;;;;;;;;;;10428402;28;20453;-83
2023/08/09 14:09:17;;;;;;;1.10;1.00;;;;;;;;;;10430102;28;20469;-83
2023/08/09 14:14:20;;;;;;;1.97;0.70;;;;;;;;;;10425210;28;21222;-83
2023/08/09 14:19:24;;;;;;;1.57;0.83;;;;;;;;;;10426868;28;20412;-83
2023/08/09 14:24:26;;;;;;;2.53;0.80;;;;;;;;;;10428903;28;20401;-82
2023/08/09 14:29:29;;;;;;;1.77;0.90;;;;;;;;;;10423246;28;20475;-83
2023/08/09 14:34:32;;;;;;;2.27;0.80;;;;;;;;;;10426422;28;20411;-83
2023/08/09 14:39:36;;;;;;;4.05;1.02;;;;;;;;;;10428176;28;20414;-82
2023/08/09 14:44:39;;;;;;;2.17;0.80;;;;;;;;;;10426620;28;20411;-83
2023/08/09 14:49:42;;;;;;;1.13;0.70;;;;;;;;;;10428475;28;20418;-82
2023/08/09 14:54:45;;;;;;;1.13;0.95;;;;;;;;;;10425137;28;20955;-83
2023/08/09 14:59:47;;;;;;;1.65;0.95;;;;;;;;;;10423844;28;20432;-83
2023/08/09 15:04:51;;;;;;;1.73;0.73;;;;;;;;;;10426472;28;20768;-83
2023/08/09 15:09:53;;;;;;;2.78;0.85;;;;;;;;;;10427785;28;20464;-83
2023/08/09 15:14:57;;;;;;;2.65;0.70;;;;;;;;;;10426668;28;20470;-83
2023/08/09 15:20:01;;;;;;;1.58;0.90;;;;;;;;;;10427608;28;20406;-83
2023/08/09 15:25:15;;;;;;;1.60;0.85;;;;;;;;;;10425937;28;20419;-82
2023/08/09 15:30:20;;;;;;;2.30;0.80;;;;;;;;;;10430238;28;20483;-83
2023/08/09 15:35:23;;;;;;;1.17;0.80;;;;;;;;;;10432538;28;20472;-83
2023/08/09 15:40:26;;;;;;;1.90;0.77;;;;;;;;;;10435266;28;20442;-83
2023/08/09 15:45:28;;;;;;;2.15;0.90;;;;;;;;;;10428098;28;20789;-83
2023/08/09 15:50:31;;;;;;;1.27;0.95;;;;;;;;;;10435242;28;20412;-83
2023/08/09 15:55:34;;;;;;;2.55;0.90;;;;;;;;;;10428588;28;20417;-83
2023/08/09 16:00:36;;;;;;;1.65;0.93;;;;;;;;;;10426219;28;20910;-82
2023/08/09 16:05:40;;;;;;;2.42;0.90;;;;;;;;;;10428432;28;20410;-82
2023/08/09 16:10:43;;;;;;;1.20;0.90;;;;;;;;;;10427621;28;20475;-83
2023/08/09 16:15:45;;;;;;;3.30;0.77;;;;;;;;;;10426831;28;20920;-82
2023/08/09 16:20:49;;;;;;;1.10;0.70;;;;;;;;;;10433928;28;20940;-83
2023/08/09 16:25:51;;;;;;;2.20;0.90;;;;;;;;;;10428881;28;20413;-84
2023/08/09 16:30:54;;;;;;;0.90;0.60;;;;;;;;;;10434237;28;20763;-83
2023/08/09 16:35:57;;;;;;;1.73;0.77;;;;;;;;;;10430034;28;20440;-83
2023/08/09 16:40:59;;;;;;;1.60;0.75;;;;;;;;;;10431962;28;20770;-83
2023/08/09 16:46:02;;;;;;;0.90;0.68;;;;;;;;;;10430113;28;20781;-83
2023/08/09 16:51:05;;;;;;;1.77;0.57;;;;;;;;;;10430104;28;20965;-83
2023/08/09 16:56:08;;;;;;;2.22;0.80;;;;;;;;;;10432462;28;20459;-92
2023/08/09 17:01:12;;;;;;;1.67;0.50;;;;;;;;;;10428343;28;20419;-83
2023/08/09 17:06:15;;;;;;;0.90;0.40;;;;;;;;;;10429391;28;20417;-83
2023/08/09 17:11:18;;;;;;;0.43;0.43;;;;;;;;;;10431973;28;20458;-83
2023/08/09 17:16:20;;;;;;;2.20;0.50;;;;;;;;;;10427417;28;20427;-83
2023/08/09 17:21:24;;;;;;;1.60;0.50;;;;;;;;;;10429594;28;20809;-83
2023/08/09 17:26:26;;;;;;;3.10;0.52;;;;;;;;;;10430529;28;20508;-82
2023/08/09 17:31:28;;;;;;;0.88;0.60;;;;;;;;;;10429315;28;20481;-83
2023/08/09 17:36:32;;;;;;;0.98;0.60;;;;;;;;;;10430251;28;20429;-82
2023/08/09 17:41:34;;;;;;;0.85;0.52;;;;;;;;;;10426865;28;20827;-83
2023/08/09 17:46:36;;;;;;;1.00;0.60;;;;;;;;;;10427200;28;20408;-83
2023/08/09 17:51:40;;;;;;;1.17;0.60;;;;;;;;;;10428966;28;20487;-83
2023/08/09 17:56:42;;;;;;;1.50;0.60;;;;;;;;;;10428100;28;20476;-83
2023/08/09 18:01:45;;;;;;;2.20;0.70;;;;;;;;;;10427340;28;20429;-83
2023/08/09 18:06:48;;;;;;;1.67;0.80;;;;;;;;;;10428731;28;20409;-83
2023/08/09 18:11:50;;;;;;;2.28;1.38;;;;;;;;;;10428206;28;20411;-83
2023/08/09 18:16:53;;;;;;;1.73;1.20;;;;;;;;;;10428881;28;20421;-82
2023/08/09 18:21:57;;;;;;;3.10;1.75;;;;;;;;;;10427934;28;20453;-83
2023/08/09 18:26:59;;;;;;;2.60;1.20;;;;;;;;;;10426384;28;20479;-83
2023/08/09 18:32:02;;;;;;;1.80;0.90;;;;;;;;;;10426200;28;20470;-82
2023/08/09 18:37:05;;;;;;;2.30;0.90;;;;;;;;;;10429483;28;20556;-83
2023/08/09 18:42:08;;;;;;;1.30;0.73;;;;;;;;;;10424461;28;20468;-82
2023/08/09 18:47:10;;;;;;;1.35;0.80;;;;;;;;;;10427364;28;20413;-83
2023/08/09 18:52:14;;;;;;;1.90;0.70;;;;;;;;;;10427821;28;20928;-82
2023/08/09 18:57:17;;;;;;;1.87;0.80;;;;;;;;;;10428613;28;20483;-83
2023/08/09 19:02:19;;;;;;;1.70;0.60;;;;;;;;;;10430650;28;20396;-82
2023/08/09 19:07:23;;;;;;;1.60;0.70;;;;;;;;;;10434638;28;20409;-82
2023/08/09 19:12:26;;;;;;;1.75;0.70;;;;;;;;;;10431120;28;20463;-82
2023/08/09 19:17:28;;;;;;;1.63;0.80;;;;;;;;;;10435264;28;20423;-83
2023/08/09 19:22:32;;;;;;;2.30;1.42;;;;;;;;;;10434299;28;20807;-82
2023/08/09 19:27:34;;;;;;;1.57;1.20;;;;;;;;;;10430761;28;20438;-82
2023/08/09 19:32:36;;;;;;;2.95;1.20;;;;;;;;;;10433646;28;20436;-82
2023/08/09 19:37:40;;;;;;;2.63;1.00;;;;;;;;;;10434957;28;20477;-82
2023/08/09 19:42:42;;;;;;;2.10;1.00;;;;;;;;;;10434013;28;20420;-83
2023/08/09 19:47:45;;;;;;;1.98;0.90;;;;;;;;;;10432970;28;20413;-82
2023/08/09 19:52:49;;;;;;;1.70;1.17;;;;;;;;;;10434640;28;20412;-82
2023/08/09 19:57:51;;;;;;;1.95;0.90;;;;;;;;;;10432142;28;20759;-83
2023/08/09 20:02:54;;;;;;;2.60;0.88;;;;;;;;;;10431909;28;20467;-82
2023/08/09 20:07:58;;;;;;;1.00;0.90;;;;;;;;;;10434693;28;20890;-83
2023/08/09 20:13:01;;;;;;;1.60;1.00;;;;;;;;;;10430461;28;20413;-81
2023/08/09 20:18:06;;;;;;;1.33;0.90;;;;;;;;;;10433617;28;20431;-82
2023/08/09 20:23:09;;;;;;;2.83;1.15;;;;;;;;;;10431690;28;20405;-82
2023/08/09 20:28:12;;;;;;;2.03;0.95;;;;;;;;;;10430573;28;20425;-82
2023/08/09 20:33:14;;;;;;;2.60;1.40;;;;;;;;;;10433178;28;20947;-82
2023/08/09 20:38:18;;;;;;;1.65;1.40;;;;;;;;;;10430862;28;20425;-82
2023/08/09 20:43:20;;;;;;;2.58;1.77;;;;;;;;;;10428666;28;20421;-81
2023/08/09 20:48:22;;;;;;;1.85;1.27;;;;;;;;;;10433606;28;20541;-81
2023/08/09 20:53:26;;;;;;;2.40;1.40;;;;;;;;;;10429450;28;20487;-81
2023/08/09 20:58:28;;;;;;;2.53;1.42;;;;;;;;;;10429844;28;20520;-82
2023/08/09 21:03:31;;;;;;;1.70;1.60;;;;;;;;;;10429115;28;20969;-81
2023/08/09 21:08:34;;;;;;;2.27;1.87;;;;;;;;;;10432530;28;20957;-82
2023/08/09 21:13:37;;;;;;;2.22;2.00;;;;;;;;;;10424483;28;20440;-82
2023/08/09 21:18:39;;;;;;;2.47;2.27;;;;;;;;;;10431978;28;20535;-82
2023/08/09 21:23:42;;;;;;;5.50;2.17;;;;;;;;;;10428433;28;20414;-81
2023/08/09 21:28:45;;;;;;;4.45;2.60;;;;;;;;;;10425960;28;20465;-82
2023/08/09 21:33:47;;;;;;;2.55;2.35;;;;;;;;;;10424770;28;20494;-81
2023/08/09 21:38:51;;;;;;;3.50;2.20;;;;;;;;;;10425095;28;20862;-81
2023/08/09 21:43:53;;;;;;;4.55;3.20;;;;;;;;;;10424966;28;20440;-81
2023/08/09 21:48:55;;;;;;;3.60;3.30;;;;;;;;;;10431904;28;20939;-82
2023/08/09 21:53:59;;;;;;;3.45;2.85;;;;;;;;;;10426981;28;20831;-82
2023/08/09 21:59:03;;;;;;;4.00;3.05;;;;;;;;;;10427584;28;20506;-81
2023/08/09 22:04:06;;;;;;;4.20;3.10;;;;;;;;;;10430340;28;20809;-82
2023/08/09 22:09:10;;;;;;;4.35;3.30;;;;;;;;;;10427855;28;20406;-81
2023/08/09 22:14:12;;;;;;;4.10;2.80;;;;;;;;;;10420677;28;20417;-81
2023/08/09 22:19:15;;;;;;;4.93;2.97;;;;;;;;;;10429512;28;20427;-81
2023/08/09 22:24:19;;;;;;;3.90;2.85;;;;;;;;;;10426378;28;20401;-82
2023/08/09 22:29:21;;;;;;;3.70;2.73;;;;;;;;;;10425886;28;20826;-81
2023/08/09 22:34:23;;;;;;;5.28;3.60;;;;;;;;;;10430216;28;20407;-82
2023/08/09 22:39:27;;;;;;;4.25;3.63;;;;;;;;;;10433462;28;20515;-82
2023/08/09 22:44:29;;;;;;;5.30;3.40;;;;;;;;;;10435337;28;20442;-82
2023/08/09 22:49:32;;;;;;;5.15;3.35;;;;;;;;;;10434392;28;20409;-80
2023/08/09 22:54:36;;;;;;;4.80;3.20;;;;;;;;;;10437932;28;20834;-81
2023/08/09 22:59:39;;;;;;;5.55;3.15;;;;;;;;;;10433065;28;20457;-83
2023/08/09 23:04:41;;;;;;;4.20;2.90;;;;;;;;;;10434263;28;20736;-82
2023/08/09 23:09:45;;;;;;;3.80;2.57;;;;;;;;;;10433132;28;20444;-82
2023/08/09 23:14:47;;;;;;;3.25;2.70;;;;;;;;;;10433331;28;20412;-83
2023/08/09 23:19:49;;;;;;;3.00;2.00;;;;;;;;;;10435852;28;20464;-82
2023/08/09 23:24:54;;;;;;;3.92;2.25;;;;;;;;;;10435861;28;20481;-82
2023/08/09 23:29:57;;;;;;;4.13;2.20;;;;;;;;;;10431749;28;20450;-82
2023/08/09 23:34:59;;;;;;;2.47;2.08;;;;;;;;;;10435137;28;20459;-83
2023/08/09 23:40:07;;;;;;;3.60;2.20;;;;;;;;;;10433060;28;20423;-82
2023/08/09 23:45:10;;;;;;;2.13;1.70;;;;;;;;;;10435288;28;20438;-82
2023/08/09 23:50:13;;;;;;;4.13;1.85;;;;;;;;;;10431200;28;20493;-82
2023/08/09 23:55:17;;;;;;;2.10;1.90;;;;;;;;;;10436577;28;20820;-82
